Time;durP1;ratioP1;P1;durP2;ratioP2;P2;SDS_P1;SDS_P2;PMS_P1;PMS_P2;Temp;Humidity;BMP_temperature;BMP_pressure;BME280_temperature;BME280_humidity;BME280_pressure;Samples;Min_cycle;Max_cycle;Signal;HPM_P1;HPM_P2
2023/01/01 00:01:43;;;;;;;21.08;4.75;;;;;;;14.28;64.82;100757.44;6184427;23;20001;-88
2023/01/01 00:04:13;;;;;;;20.67;8.45;;;;;;;14.17;66.70;100762.13;6183659;23;20088;-88
2023/01/01 00:06:38;;;;;;;16.85;5.13;;;;;;;14.23;66.27;100758.31;6183390;23;20055;-87
2023/01/01 00:11:48;;;;;;;14.77;4.50;;;;;;;14.11;66.29;100773.22;6184053;23;20052;-88
2023/01/01 00:14:13;;;;;;;12.30;3.50;;;;;;;14.17;64.91;100756.72;6182625;23;20001;-88
2023/01/01 00:16:38;;;;;;;13.83;3.23;;;;;;;14.17;65.09;100775.59;6183954;23;20054;-88
2023/01/01 00:19:04;;;;;;;9.23;3.63;;;;;;;14.18;64.88;100781.81;6182836;23;20005;-88
2023/01/01 00:21:32;;;;;;;11.57;2.80;;;;;;;14.22;64.42;100766.69;6183459;23;20008;-88
2023/01/01 00:23:57;;;;;;;12.18;3.15;;;;;;;14.16;64.56;100771.28;6183641;23;20005;-88
2023/01/01 00:26:23;;;;;;;8.93;2.80;;;;;;;14.20;64.46;100775.03;6184382;23;20028;-88
2023/01/01 00:28:48;;;;;;;11.13;3.90;;;;;;;14.17;63.61;100788.28;6183436;23;20005;-89
2023/01/01 00:31:18;;;;;;;12.93;3.20;;;;;;;14.15;63.32;100785.84;6183192;23;20040;-88
2023/01/01 00:33:45;;;;;;;10.05;2.90;;;;;;;14.22;63.49;100790.94;6183608;23;20088;-88
2023/01/01 00:36:15;;;;;;;11.68;3.35;;;;;;;14.23;63.31;100773.69;6183968;23;20028;-87
2023/01/01 00:38:43;;;;;;;11.77;3.40;;;;;;;14.30;63.82;100781.44;6183064;23;20009;-87
2023/01/01 00:41:09;;;;;;;12.73;3.30;;;;;;;14.19;65.30;100764.56;6183635;23;20020;-87
2023/01/01 00:43:36;;;;;;;10.40;2.75;;;;;;;14.15;65.05;100763.50;6183244;23;20016;-88
2023/01/01 00:46:03;;;;;;;9.80;2.90;;;;;;;14.15;67.27;100774.28;6184025;23;20001;-87
2023/01/01 00:48:29;;;;;;;18.20;5.13;;;;;;;14.03;66.17;100777.34;6182837;23;20013;-87
2023/01/01 00:50:54;;;;;;;14.60;3.20;;;;;;;13.99;65.98;100768.22;6183383;23;20327;-89
2023/01/01 00:53:20;;;;;;;15.13;2.47;;;;;;;13.99;66.88;100768.22;6183648;23;20001;-89
2023/01/01 00:55:48;;;;;;;8.73;2.47;;;;;;;14.00;66.61;100770.63;6184022;23;20008;-89
2023/01/01 00:58:14;;;;;;;9.23;2.50;;;;;;;13.96;65.82;100766.09;6183349;23;20036;-89
2023/01/01 01:00:39;;;;;;;9.60;2.92;;;;;;;13.99;65.42;100769.03;6183782;23;20297;-89
2023/01/01 01:03:05;;;;;;;11.37;2.50;;;;;;;14.05;64.59;100796.72;6183771;23;20107;-88
2023/01/01 01:05:31;;;;;;;12.60;2.33;;;;;;;14.07;64.27;100784.56;6183291;23;20080;-88
2023/01/01 01:07:57;;;;;;;11.02;2.28;;;;;;;14.11;64.13;100781.31;6183183;23;20015;-88
2023/01/01 01:10:24;;;;;;;15.77;2.75;;;;;;;14.13;63.57;100789.91;6182412;23;20032;-88
2023/01/01 01:12:51;;;;;;;11.50;2.20;;;;;;;14.03;65.07;100791.63;6183399;23;20469;-88
2023/01/01 01:15:17;;;;;;;6.03;2.17;;;;;;;13.96;64.40;100772.28;6183585;23;20024;-88
2023/01/01 01:17:42;;;;;;;7.70;1.88;;;;;;;14.07;63.95;100756.84;6182619;23;20001;-89
2023/01/01 01:20:08;;;;;;;8.30;1.90;;;;;;;14.14;63.12;100776.19;6183501;23;20063;-88
2023/01/01 01:22:33;;;;;;;12.90;2.20;;;;;;;14.14;64.28;100778.88;6156731;23;20005;-88
2023/01/01 01:24:59;;;;;;;6.40;2.17;;;;;;;14.14;65.08;100767.28;6182160;23;20471;-89
2023/01/01 01:27:24;;;;;;;13.90;3.70;;;;;;;14.08;64.83;100780.00;6182923;23;20042;-88
2023/01/01 01:29:50;;;;;;;5.87;2.10;;;;;;;13.94;65.42;100796.00;6182901;23;20333;-88
2023/01/01 01:32:15;;;;;;;6.65;2.10;;;;;;;13.89;64.32;100787.94;6182771;23;20012;-88
2023/01/01 01:34:40;;;;;;;8.73;2.10;;;;;;;13.98;64.04;100807.81;6183186;23;20052;-88
2023/01/01 01:37:06;;;;;;;6.37;1.73;;;;;;;13.82;63.76;100792.88;6182231;23;19997;-88
2023/01/01 01:39:32;;;;;;;8.03;2.20;;;;;;;13.84;64.32;100802.25;6183726;23;20005;-89
2023/01/01 01:41:58;;;;;;;8.43;2.42;;;;;;;13.76;63.59;100809.03;6183169;23;20084;-88
2023/01/01 01:45:04;;;;;;;6.70;2.27;;;;;;;13.77;65.26;100809.88;6180831;23;20482;-88
2023/01/01 01:47:34;;;;;;;11.50;1.90;;;;;;;13.70;65.85;100795.91;6090425;23;20034;-88
2023/01/01 01:50:24;;;;;;;12.85;2.20;;;;;;;13.72;66.02;100804.50;6066763;23;20061;-88
2023/01/01 01:52:58;;;;;;;8.17;2.10;;;;;;;13.66;65.29;100811.81;6153254;23;20005;-88
2023/01/01 01:55:28;;;;;;;6.67;1.90;;;;;;;13.59;65.30;100820.22;6181095;23;20312;-88
2023/01/01 01:57:53;;;;;;;8.52;2.17;;;;;;;13.51;64.55;100812.69;6182519;23;20005;-88
2023/01/01 02:00:19;;;;;;;10.25;2.17;;;;;;;13.48;65.33;100803.31;6181967;23;20031;-88
2023/01/01 02:02:52;;;;;;;5.47;2.00;;;;;;;13.58;65.90;100839.31;6180443;23;20036;-88
2023/01/01 02:05:19;;;;;;;11.00;1.80;;;;;;;13.49;65.68;100839.09;6182391;23;20611;-88
2023/01/01 02:07:45;;;;;;;8.07;2.13;;;;;;;13.52;65.70;100808.09;6182765;23;20087;-88
2023/01/01 02:10:11;;;;;;;9.20;2.40;;;;;;;13.51;66.22;100846.91;6183820;23;20035;-88
2023/01/01 02:12:36;;;;;;;10.00;1.90;;;;;;;13.54;65.12;100843.63;6183989;23;20084;-88
2023/01/01 02:15:02;;;;;;;7.77;2.13;;;;;;;13.57;64.99;100859.25;6183586;23;20011;-88
2023/01/01 02:17:32;;;;;;;12.00;2.00;;;;;;;13.60;64.69;100840.63;6185022;23;20012;-87
2023/01/01 02:20:11;;;;;;;7.22;1.65;;;;;;;13.53;66.08;100850.91;6187155;23;20012;-88
2023/01/01 02:23:08;;;;;;;7.60;2.37;;;;;;;13.52;65.98;100849.31;6184167;23;19997;-88
2023/01/01 02:26:07;;;;;;;8.10;2.10;;;;;;;13.44;66.24;100823.78;6207741;23;20256;-88
2023/01/01 02:28:50;;;;;;;10.07;2.33;;;;;;;13.50;66.29;100838.00;6211162;23;19993;-88
2023/01/01 02:31:23;;;;;;;9.40;1.88;;;;;;;13.53;64.70;100845.53;6210050;23;20005;-87
2023/01/01 02:33:51;;;;;;;5.70;1.75;;;;;;;13.51;64.66;100838.81;6210445;23;20011;-88
2023/01/01 02:36:19;;;;;;;10.13;1.70;;;;;;;13.46;64.28;100820.78;6189382;23;20002;-88
2023/01/01 02:38:50;;;;;;;6.47;1.50;;;;;;;13.53;64.46;100840.16;6198640;23;20001;-88
2023/01/01 02:41:22;;;;;;;6.27;1.50;;;;;;;13.50;64.83;100850.69;6191634;23;20237;-88
2023/01/01 02:43:47;;;;;;;5.03;1.67;;;;;;;13.39;65.63;100837.22;6183552;23;20473;-88
2023/01/01 02:46:13;;;;;;;6.95;1.60;;;;;;;13.35;65.85;100838.84;6184896;23;20521;-88
2023/01/01 02:48:51;;;;;;;7.67;1.60;;;;;;;13.39;64.79;100839.13;6182840;23;20009;-88
2023/01/01 02:51:54;;;;;;;8.05;2.00;;;;;;;13.47;65.02;100825.91;6183483;23;20008;-88
2023/01/01 02:54:27;;;;;;;6.90;1.98;;;;;;;13.47;66.11;100836.69;6182925;23;20088;-87
2023/01/01 02:57:22;;;;;;;7.87;1.57;;;;;;;13.43;66.75;100846.38;6179347;23;20096;-87
2023/01/01 03:00:18;;;;;;;8.43;1.75;;;;;;;13.46;65.62;100850.41;6182928;23;20349;-88
2023/01/01 03:03:05;;;;;;;4.88;1.35;;;;;;;13.46;65.87;100859.31;6156442;23;20437;-88
2023/01/01 03:06:24;;;;;;;7.07;1.55;;;;;;;13.45;66.33;100855.00;6193831;23;20051;-88
2023/01/01 03:09:17;;;;;;;6.22;1.60;;;;;;;13.39;67.69;100856.06;6182485;23;20429;-88
2023/01/01 03:12:19;;;;;;;5.32;1.38;;;;;;;13.38;67.08;100873.28;6183068;23;20589;-88
2023/01/01 03:14:55;;;;;;;5.70;1.50;;;;;;;13.38;66.94;100862.53;6183093;23;20039;-88
2023/01/01 03:17:32;;;;;;;8.30;1.40;;;;;;;13.24;68.46;100854.22;6183029;23;20013;-88
2023/01/01 03:20:01;;;;;;;5.60;1.27;;;;;;;13.25;68.32;100860.44;6183099;23;20323;-88
2023/01/01 03:22:36;;;;;;;3.70;1.52;;;;;;;13.16;68.12;100868.25;6183160;23;20009;-88
2023/01/01 03:25:06;;;;;;;5.88;1.23;;;;;;;13.23;67.93;100867.97;6156119;23;20032;-88
2023/01/01 03:27:39;;;;;;;5.18;1.35;;;;;;;13.25;68.48;100876.56;6182984;23;20079;-87
2023/01/01 03:30:08;;;;;;;8.73;1.85;;;;;;;13.23;68.51;100871.47;6183465;23;20206;-88
2023/01/01 03:32:59;;;;;;;6.07;1.20;;;;;;;13.20;68.47;100876.59;6183068;23;20075;-88
2023/01/01 03:35:29;;;;;;;6.40;1.33;;;;;;;13.16;68.82;100863.66;6181539;23;20256;-87
2023/01/01 03:37:58;;;;;;;7.28;1.63;;;;;;;13.21;69.66;100862.06;6183224;23;20056;-88
2023/01/01 03:40:26;;;;;;;6.60;1.40;;;;;;;13.20;68.30;100863.13;6182942;23;20080;-88
2023/01/01 03:43:07;;;;;;;4.30;1.40;;;;;;;13.21;69.92;100880.88;6183631;23;20013;-88
2023/01/01 03:45:37;;;;;;;5.43;1.38;;;;;;;13.20;69.88;100876.59;6181913;23;20016;-88
2023/01/01 03:48:04;;;;;;;3.97;1.25;;;;;;;13.16;69.93;100885.19;6155296;23;20016;-88
2023/01/01 03:50:44;;;;;;;9.43;1.97;;;;;;;13.13;70.00;100875.00;6155064;23;20398;-88
2023/01/01 03:53:16;;;;;;;4.00;1.47;;;;;;;13.12;69.80;100880.66;6182047;23;20248;-88
2023/01/01 03:55:48;;;;;;;5.72;1.58;;;;;;;13.20;69.85;100898.09;6182600;23;20011;-88
2023/01/01 03:58:45;;;;;;;7.15;1.67;;;;;;;13.12;70.22;100873.41;6181346;23;20436;-88
2023/01/01 04:01:16;;;;;;;5.75;1.45;;;;;;;13.18;70.01;100882.25;6156119;23;20012;-88
2023/01/01 04:03:42;;;;;;;8.27;1.50;;;;;;;13.24;70.08;100888.41;6182098;23;20005;-88
2023/01/01 04:06:10;;;;;;;6.33;1.60;;;;;;;13.19;70.13;100881.16;6182774;23;20005;-88
2023/01/01 04:08:36;;;;;;;4.25;1.38;;;;;;;13.13;70.48;100896.53;6182266;23;20418;-88
2023/01/01 04:12:00;;;;;;;11.05;1.88;;;;;;;13.09;71.00;100894.63;6183451;23;20009;-88
2023/01/01 04:13:53;;;;;;;6.80;1.75;;;;;;;13.12;71.64;100896.78;6182117;23;20013;-88
2023/01/01 04:16:18;;;;;;;5.37;1.40;;;;;;;13.06;71.27;100898.69;6155964;23;20013;-88
2023/01/01 04:18:44;;;;;;;10.20;1.90;;;;;;;13.08;71.43;100909.97;6182489;23;20009;-87
2023/01/01 04:21:11;;;;;;;3.53;1.40;;;;;;;13.11;71.91;100912.13;6156085;23;20467;-88
2023/01/01 04:23:36;;;;;;;9.93;1.40;;;;;;;13.14;70.83;100913.47;6155156;23;20455;-88
2023/01/01 04:26:01;;;;;;;5.03;1.30;;;;;;;13.12;71.17;100899.47;6182455;23;20024;-88
2023/01/01 04:28:27;;;;;;;9.07;1.90;;;;;;;13.15;71.60;100904.31;6181644;23;20036;-88
2023/01/01 04:30:52;;;;;;;10.33;1.57;;;;;;;13.11;71.52;100901.38;6182738;23;20052;-88
2023/01/01 04:35:53;;;;;;;5.77;1.70;;;;;;;13.04;72.68;100895.47;6181588;22;20080;-88
2023/01/01 04:38:18;;;;;;;8.23;1.63;;;;;;;13.02;72.99;100917.25;6182516;23;20009;-88
2023/01/01 04:40:43;;;;;;;4.53;1.40;;;;;;;12.96;73.63;100922.94;6182688;23;20029;-88
2023/01/01 04:43:08;;;;;;;8.33;1.70;;;;;;;12.98;73.16;100936.88;6184797;23;20039;-88
2023/01/01 04:45:34;;;;;;;6.57;1.70;;;;;;;12.92;75.00;100935.31;6183903;23;20532;-86
2023/01/01 04:48:05;;;;;;;6.27;1.67;;;;;;;12.91;74.92;100944.44;6188739;23;20001;-87
2023/01/01 04:50:32;;;;;;;8.75;2.20;;;;;;;12.79;74.78;100924.00;6196248;23;20378;-87
2023/01/01 04:52:58;;;;;;;10.60;1.95;;;;;;;12.84;75.32;100929.38;6194129;23;20421;-87
2023/01/01 04:55:23;;;;;;;5.97;1.67;;;;;;;12.85;75.92;100939.06;6171473;23;20013;-85
2023/01/01 04:57:48;;;;;;;7.33;1.90;;;;;;;12.83;76.08;100943.09;6165175;23;20083;-87
2023/01/01 05:00:14;;;;;;;7.27;1.60;;;;;;;12.79;76.18;100929.38;6159010;23;20341;-87
2023/01/01 05:02:42;;;;;;;8.15;1.30;;;;;;;12.78;76.82;100927.75;6187805;23;20443;-87
2023/01/01 05:05:07;;;;;;;5.55;1.52;;;;;;;12.79;77.07;100942.03;6183701;23;20032;-88
2023/01/01 05:07:33;;;;;;;11.73;1.90;;;;;;;12.92;76.40;100951.44;6182444;23;20128;-88
2023/01/01 05:10:00;;;;;;;9.60;1.38;;;;;;;12.90;76.83;100967.03;6183541;23;20393;-89
2023/01/01 05:12:25;;;;;;;5.90;1.58;;;;;;;12.85;76.98;100965.94;6184410;23;20005;-87
2023/01/01 05:14:50;;;;;;;4.43;1.57;;;;;;;12.85;76.50;100960.56;6183541;23;20329;-87
2023/01/01 05:17:17;;;;;;;5.53;1.80;;;;;;;12.90;77.01;100965.13;6185826;23;20048;-87
2023/01/01 05:19:42;;;;;;;8.73;1.92;;;;;;;12.87;77.33;100960.31;6160004;23;20059;-87
2023/01/01 05:22:07;;;;;;;8.67;1.70;;;;;;;12.90;77.19;100977.78;6190769;23;20005;-87
2023/01/01 05:24:35;;;;;;;6.50;1.60;;;;;;;12.90;76.98;100989.34;6191030;23;20016;-87
2023/01/01 05:27:00;;;;;;;7.05;1.75;;;;;;;12.84;77.01;100991.22;6205771;23;19993;-87
2023/01/01 05:29:25;;;;;;;6.63;1.70;;;;;;;12.90;77.86;101008.16;6212233;23;20036;-87
2023/01/01 05:31:52;;;;;;;9.77;2.33;;;;;;;12.76;77.18;100991.78;6207592;23;20009;-87
2023/01/01 05:34:17;;;;;;;6.18;1.80;;;;;;;12.80;77.22;100994.72;6209277;23;20540;-87
2023/01/01 05:36:42;;;;;;;5.40;1.60;;;;;;;12.82;77.40;101011.41;6186929;23;20024;-88
2023/01/01 05:39:10;;;;;;;5.50;1.52;;;;;;;12.81;77.81;101010.59;6184536;23;20008;-88
2023/01/01 05:41:36;;;;;;;5.33;1.80;;;;;;;12.90;78.58;101031.56;6159493;23;20011;-89
2023/01/01 05:44:06;;;;;;;9.10;1.90;;;;;;;12.86;78.50;101028.63;6184127;23;20016;-89
2023/01/01 05:46:32;;;;;;;5.00;1.30;;;;;;;12.79;78.62;101020.00;6184898;23;20005;-90
2023/01/01 06:22:30;;;;;;;8.25;1.90;;;;;;;12.36;81.18;101055.94;6183504;23;20083;-87
2023/01/01 06:24:56;;;;;;;7.63;2.10;;;;;;;12.60;81.06;101082.34;6182418;23;20017;-86
2023/01/01 06:27:23;;;;;;;5.37;1.60;;;;;;;12.55;81.09;101071.56;6156670;23;20012;-86
2023/01/01 06:37:50;;;;;;;6.23;1.70;;;;;;;12.03;92.97;101156.53;6160625;22;20274;-88
2023/01/01 06:40:16;;;;;;;8.50;1.90;;;;;;;11.66;98.43;101156.28;6213744;23;20000;-88
2023/01/01 06:42:41;;;;;;;6.17;1.60;;;;;;;11.25;100.00;101129.09;6210824;23;20005;-88
2023/01/01 06:45:07;;;;;;;7.60;2.23;;;;;;;10.94;100.00;101133.34;6182189;23;20453;-88
2023/01/01 06:47:34;;;;;;;7.25;1.90;;;;;;;10.88;100.00;101165.44;6181245;23;20065;-88
2023/01/01 06:50:00;;;;;;;9.68;2.25;;;;;;;10.62;100.00;101155.50;6184435;23;20001;-89
2023/01/01 06:52:27;;;;;;;10.57;2.30;;;;;;;10.55;100.00;101159.19;6162771;23;20005;-89
2023/01/01 06:54:52;;;;;;;9.20;2.87;;;;;;;10.42;100.00;101171.06;6191382;23;20056;-89
2023/01/01 06:57:19;;;;;;;8.20;2.73;;;;;;;10.37;100.00;101173.69;6188699;23;20233;-89
2023/01/01 06:59:45;;;;;;;10.70;3.28;;;;;;;10.26;100.00;101175.41;6190855;23;20079;-89
2023/01/01 07:02:11;;;;;;;8.40;3.10;;;;;;;10.17;100.00;101182.22;6183714;23;20001;-90
2023/01/01 07:04:37;;;;;;;7.83;3.83;;;;;;;10.19;100.00;101187.34;6186610;23;20336;-89
2023/01/01 07:07:02;;;;;;;9.27;3.20;;;;;;;10.20;100.00;101191.66;6189535;23;20001;-90
2023/01/01 07:09:27;;;;;;;7.17;3.40;;;;;;;10.13;100.00;101179.22;6188337;23;20001;-89
2023/01/01 07:11:53;;;;;;;9.37;3.23;;;;;;;10.11;100.00;101188.59;6187385;23;20066;-89
2023/01/01 07:14:18;;;;;;;7.23;3.10;;;;;;;10.08;100.00;101197.91;6183311;23;20032;-89
2023/01/01 07:16:43;;;;;;;12.63;2.87;;;;;;;10.11;100.00;101218.84;6184825;23;20012;-89
2023/01/01 07:19:09;;;;;;;8.23;2.40;;;;;;;10.05;100.00;101222.47;6187307;23;20272;-88
2023/01/01 07:21:47;;;;;;;9.23;2.90;;;;;;;10.01;100.00;101216.00;6186738;23;20081;-88
2023/01/01 07:24:14;;;;;;;9.50;2.70;;;;;;;10.02;100.00;101214.97;6187829;23;20416;-88
2023/01/01 07:26:40;;;;;;;6.20;2.73;;;;;;;9.92;100.00;101204.06;6181633;23;20009;-89
2023/01/01 07:29:07;;;;;;;6.63;2.67;;;;;;;9.93;100.00;101227.13;6180828;23;20344;-88
2023/01/01 07:31:34;;;;;;;7.00;2.03;;;;;;;9.90;100.00;101219.56;6182528;23;20424;-89
2023/01/01 07:34:02;;;;;;;14.45;2.17;;;;;;;9.81;100.00;101217.31;6182572;23;20008;-91
2023/01/01 07:36:28;;;;;;;6.65;1.88;;;;;;;9.77;100.00;101213.50;6181987;23;20314;-87
2023/01/01 07:38:53;;;;;;;7.03;1.90;;;;;;;9.71;100.00;101211.78;6181976;23;20063;-87
2023/01/01 07:41:18;;;;;;;14.87;2.10;;;;;;;9.77;100.00;101226.88;6182191;23;20004;-92
2023/01/01 07:43:43;;;;;;;7.90;2.03;;;;;;;9.74;100.00;101240.72;6181193;23;20421;-89
2023/01/01 07:46:11;;;;;;;6.15;1.63;;;;;;;9.68;100.00;101228.31;6181247;23;20013;-90
2023/01/01 07:48:37;;;;;;;5.30;1.97;;;;;;;9.70;100.00;101228.88;6152895;23;20028;-88
2023/01/01 07:51:02;;;;;;;8.30;1.88;;;;;;;9.69;100.00;101240.63;6181856;23;20072;-89
2023/01/01 07:53:27;;;;;;;8.57;1.97;;;;;;;9.72;100.00;101253.53;6182331;23;20417;-88
2023/01/01 07:55:53;;;;;;;7.40;1.70;;;;;;;9.72;100.00;101250.88;6182349;23;20433;-88
2023/01/01 07:58:19;;;;;;;9.70;1.60;;;;;;;9.73;100.00;101260.50;6182121;23;20479;-89
2023/01/01 08:00:47;;;;;;;8.57;2.40;;;;;;;9.65;100.00;101258.25;6182214;23;20040;-88
2023/01/01 08:03:13;;;;;;;7.47;2.05;;;;;;;9.67;100.00;101269.53;6182816;23;20027;-88
2023/01/01 08:05:40;;;;;;;4.43;1.48;;;;;;;9.65;100.00;101264.41;6181856;23;20005;-90
2023/01/01 08:08:06;;;;;;;6.53;1.58;;;;;;;9.77;100.00;101290.31;6181966;23;20005;-87
2023/01/01 08:10:31;;;;;;;10.33;2.40;;;;;;;9.77;100.00;101315.19;6182099;23;20025;-87
2023/01/01 08:13:01;;;;;;;12.15;2.25;;;;;;;9.72;100.00;101315.09;6181425;23;20428;-87
2023/01/01 08:15:26;;;;;;;11.57;2.17;;;;;;;9.71;100.00;101313.47;6183371;23;20076;-89
2023/01/01 08:17:59;;;;;;;6.40;1.77;;;;;;;9.75;100.00;101311.94;6184742;23;20149;-88
2023/01/01 08:20:26;;;;;;;8.93;1.67;;;;;;;9.73;100.00;101314.03;6187795;23;20032;-85
2023/01/01 08:22:51;;;;;;;7.90;1.73;;;;;;;9.68;100.00;101311.25;6158778;23;20067;-85
2023/01/01 08:25:17;;;;;;;12.27;2.13;;;;;;;9.67;100.00;101321.16;6194755;23;20413;-84
2023/01/01 08:27:42;;;;;;;10.00;2.05;;;;;;;9.65;100.00;101323.25;6195958;23;20031;-86
2023/01/01 08:30:10;;;;;;;11.43;1.80;;;;;;;9.58;100.00;101305.72;6206542;23;19999;-86
2023/01/01 08:35:10;;;;;;;9.82;2.00;;;;;;;9.57;100.00;101320.16;6203651;22;20021;-84
2023/01/01 08:37:36;;;;;;;8.70;1.90;;;;;;;9.52;100.00;101308.31;6183070;23;20050;-84
2023/01/01 08:40:01;;;;;;;9.30;2.10;;;;;;;9.64;100.00;101321.63;6183193;23;20025;-84
2023/01/01 08:42:26;;;;;;;4.80;1.67;;;;;;;9.68;100.00;101330.00;6180647;23;20005;-84
2023/01/01 08:44:52;;;;;;;12.73;2.03;;;;;;;9.67;100.00;101342.56;6183845;23;20433;-85
2023/01/01 08:47:25;;;;;;;7.70;2.00;;;;;;;9.65;100.00;101333.16;6183387;23;20009;-84
2023/01/01 08:49:51;;;;;;;8.82;2.03;;;;;;;9.70;100.00;101355.47;6183399;23;20122;-85
2023/01/01 08:52:19;;;;;;;8.05;2.25;;;;;;;9.68;100.00;101352.22;6183959;23;20472;-84
2023/01/01 08:54:44;;;;;;;15.65;2.00;;;;;;;9.68;100.00;101352.22;6181640;23;20008;-84
2023/01/01 08:57:11;;;;;;;8.13;1.70;;;;;;;9.71;100.00;101353.59;6183525;23;20058;-84
2023/01/01 08:59:36;;;;;;;10.65;2.00;;;;;;;9.64;100.00;101352.94;6183238;23;20031;-84
2023/01/01 09:02:02;;;;;;;7.63;2.20;;;;;;;9.65;100.00;101359.94;6180498;23;20001;-85
2023/01/01 09:04:29;;;;;;;11.37;2.63;;;;;;;9.72;100.00;101373.97;6181732;23;20005;-85
2023/01/01 09:06:54;;;;;;;10.70;2.33;;;;;;;9.69;100.00;101356.53;6156001;23;20009;-84
2023/01/01 09:09:20;;;;;;;9.90;2.30;;;;;;;9.59;100.00;101323.41;6183616;23;20380;-85
2023/01/01 09:11:51;;;;;;;10.82;2.53;;;;;;;9.77;100.00;101352.66;6183333;23;20005;-85
2023/01/01 09:14:17;;;;;;;10.15;2.10;;;;;;;9.81;100.00;101352.97;6156575;23;20027;-85
2023/01/01 09:16:42;;;;;;;10.57;2.60;;;;;;;9.80;100.00;101346.84;6184381;23;20001;-85
2023/01/01 09:19:07;;;;;;;9.27;2.23;;;;;;;9.82;100.00;101362.63;6183146;23;20241;-85
2023/01/01 09:21:33;;;;;;;10.30;2.17;;;;;;;9.84;100.00;101368.56;6184084;23;20417;-86
2023/01/01 09:23:58;;;;;;;8.90;2.57;;;;;;;9.85;100.00;101367.53;6183805;23;20005;-85
2023/01/01 09:26:23;;;;;;;9.97;2.27;;;;;;;9.82;100.00;101352.75;6183556;23;20041;-85
2023/01/01 09:28:49;;;;;;;10.30;2.13;;;;;;;9.72;100.00;101349.06;6182662;23;20007;-86
2023/01/01 09:31:14;;;;;;;6.35;1.98;;;;;;;9.77;100.00;101362.56;6184204;23;20009;-85
2023/01/01 09:33:41;;;;;;;11.47;3.07;;;;;;;9.71;100.00;101358.97;6183687;23;20005;-85
2023/01/01 09:36:27;;;;;;;8.98;3.25;;;;;;;9.68;100.00;101359.44;6183828;23;20012;-85
2023/01/01 09:38:54;;;;;;;13.43;3.50;;;;;;;9.72;100.00;101371.28;6183111;23;20001;-85
2023/01/01 09:41:58;;;;;;;11.43;4.00;;;;;;;9.71;100.00;101366.97;6157400;23;20035;-85
2023/01/01 09:44:35;;;;;;;11.33;3.77;;;;;;;9.80;100.00;101384.31;6182669;23;20261;-85
2023/01/01 09:47:04;;;;;;;11.93;4.10;;;;;;;9.46;100.00;101352.06;6174965;22;20020;-84
2023/01/01 09:49:35;;;;;;;10.80;3.22;;;;;;;9.48;100.00;101344.63;6182766;23;20079;-85
2023/01/01 09:52:04;;;;;;;9.93;2.80;;;;;;;9.51;100.00;101384.25;6184321;23;20309;-84
2023/01/01 09:54:39;;;;;;;13.68;2.80;;;;;;;9.42;100.00;101387.53;6182963;23;20009;-85
2023/01/01 09:57:10;;;;;;;11.30;3.15;;;;;;;9.33;100.00;101393.28;6182628;23;20479;-85
2023/01/01 09:59:35;;;;;;;13.13;2.80;;;;;;;9.26;100.00;101378.41;6183679;23;20001;-85
2023/01/01 10:02:19;;;;;;;7.65;2.50;;;;;;;9.24;100.00;101378.63;6183435;23;20036;-83
2023/01/01 10:04:52;;;;;;;12.10;2.93;;;;;;;9.25;100.00;101372.22;6182034;23;20093;-83
2023/01/01 10:07:33;;;;;;;15.90;4.00;;;;;;;9.24;100.00;101367.91;6183602;23;20244;-85
2023/01/01 10:10:37;;;;;;;14.55;3.72;;;;;;;9.24;100.00;101374.09;6183855;23;20001;-83
2023/01/01 10:13:21;;;;;;;18.90;5.57;;;;;;;9.23;100.00;101387.69;6194345;23;20028;-83
2023/01/01 10:15:58;;;;;;;14.43;5.15;;;;;;;9.19;100.00;101382.00;6192848;23;20008;-83
2023/01/01 10:18:29;;;;;;;15.50;6.22;;;;;;;9.25;100.00;101366.88;6195724;23;20039;-83
2023/01/01 10:21:15;;;;;;;17.23;5.25;;;;;;;9.25;100.00;101358.84;6166096;23;20011;-83
2023/01/01 10:23:51;;;;;;;15.90;4.50;;;;;;;9.23;100.00;101369.81;6182265;23;20063;-83
2023/01/01 10:26:20;;;;;;;14.53;4.17;;;;;;;9.26;100.00;101373.06;6182405;23;20275;-83
2023/01/01 10:29:22;;;;;;;19.67;4.10;;;;;;;9.27;100.00;101369.34;6173598;23;20001;-83
2023/01/01 10:31:48;;;;;;;10.50;3.50;;;;;;;9.32;100.00;101374.78;6182175;23;20044;-83
2023/01/01 10:34:22;;;;;;;11.02;3.70;;;;;;;9.37;100.00;101380.22;6182962;23;20130;-83
2023/01/01 10:36:50;;;;;;;16.17;4.13;;;;;;;9.39;100.00;101378.13;6179825;23;20095;-83
2023/01/01 10:39:17;;;;;;;11.13;3.17;;;;;;;9.43;100.00;101373.13;6179676;23;20066;-83
2023/01/01 10:41:43;;;;;;;16.20;4.35;;;;;;;9.43;100.00;101373.94;6188688;23;20012;-83
2023/01/01 10:44:11;;;;;;;19.30;4.13;;;;;;;9.48;100.00;101379.41;6184982;23;20005;-82
2023/01/01 10:46:41;;;;;;;13.95;4.25;;;;;;;9.46;100.00;101375.31;6185017;23;20373;-83
2023/01/01 10:49:10;;;;;;;14.57;3.70;;;;;;;9.49;100.00;101366.84;6186461;23;20028;-82
2023/01/01 10:51:42;;;;;;;15.02;3.50;;;;;;;9.56;100.00;101372.88;6184060;23;20354;-83
2023/01/01 10:54:34;;;;;;;16.90;3.77;;;;;;;9.63;100.00;101372.72;6182633;23;20021;-83
2023/01/01 10:57:32;;;;;;;15.13;4.00;;;;;;;9.67;100.00;101369.34;6186293;23;20256;-83
2023/01/01 11:00:18;;;;;;;17.70;3.22;;;;;;;9.72;100.00;101382.00;6189591;23;20021;-86
2023/01/01 11:02:43;;;;;;;18.58;3.83;;;;;;;9.77;100.00;101379.41;6187283;23;20574;-82
2023/01/01 11:05:20;;;;;;;17.20;3.00;;;;;;;9.87;100.00;101377.97;6196297;23;20045;-82
2023/01/01 11:07:46;;;;;;;11.35;2.95;;;;;;;9.94;100.00;101384.84;6185202;23;20017;-83
2023/01/01 11:10:21;;;;;;;14.98;3.13;;;;;;;9.96;100.00;101385.38;6181024;23;19997;-84
2023/01/01 11:12:49;;;;;;;12.93;3.38;;;;;;;10.06;100.00;101392.78;6181342;23;20001;-83
2023/01/01 11:15:25;;;;;;;13.80;3.35;;;;;;;10.10;100.00;101393.94;6182222;23;20023;-84
2023/01/01 11:17:50;;;;;;;15.00;3.33;;;;;;;10.18;100.00;101406.13;6182436;23;20135;-83
2023/01/01 11:20:19;;;;;;;13.73;3.13;;;;;;;10.27;100.00;101399.34;6181527;23;20033;-83
2023/01/01 11:22:50;;;;;;;15.25;2.80;;;;;;;10.35;100.00;101413.38;6195368;23;20701;-83
2023/01/01 11:25:27;;;;;;;17.90;2.85;;;;;;;10.39;100.00;101418.06;6191006;23;20425;-83
2023/01/01 11:28:15;;;;;;;16.43;2.40;;;;;;;10.44;100.00;101420.00;6192040;23;20005;-84
2023/01/01 11:30:56;;;;;;;12.93;2.80;;;;;;;10.47;100.00;101406.13;6190151;23;20248;-83
2023/01/01 11:38:30;;;;;;;12.30;2.75;;;;;;;10.50;100.00;101367.31;6180824;23;20021;-83
2023/01/01 11:41:02;;;;;;;10.77;2.50;;;;;;;10.61;100.00;101379.78;6181014;23;20012;-83
2023/01/01 11:43:32;;;;;;;11.00;2.40;;;;;;;10.81;100.00;101405.28;6181386;23;20015;-83
2023/01/01 11:45:58;;;;;;;15.45;2.85;;;;;;;10.82;100.00;101390.84;6181758;23;20013;-83
2023/01/01 11:48:31;;;;;;;10.73;2.25;;;;;;;10.83;100.00;101385.25;6181289;23;20080;-83
2023/01/01 11:51:00;;;;;;;15.32;2.40;;;;;;;10.87;100.00;101369.47;6183593;23;20498;-84
2023/01/01 11:53:30;;;;;;;12.27;2.42;;;;;;;10.93;100.00;101394.47;6186891;22;20247;-84
2023/01/01 11:56:19;;;;;;;10.50;1.80;;;;;;;10.94;100.00;101393.41;6213883;23;20444;-83
2023/01/01 11:58:57;;;;;;;14.05;2.10;;;;;;;10.93;100.00;101386.44;6211781;23;20005;-84
2023/01/01 12:02:02;;;;;;;13.52;2.40;;;;;;;10.98;100.00;101398.03;6213013;23;20004;-83
2023/01/01 12:04:39;;;;;;;10.13;1.95;;;;;;;10.94;100.00;101399.63;6175402;23;20005;-83
2023/01/01 12:07:23;;;;;;;15.75;1.85;;;;;;;10.97;100.00;101400.97;6183951;23;20055;-85
2023/01/01 12:10:03;;;;;;;10.23;2.25;;;;;;;11.02;100.00;101399.19;6183951;23;20012;-84
2023/01/01 12:12:37;;;;;;;12.07;2.37;;;;;;;11.02;100.00;101401.06;6183038;23;20004;-84
2023/01/01 12:15:18;;;;;;;14.33;2.43;;;;;;;11.10;100.00;101399.81;6183692;23;20248;-85
2023/01/01 12:17:58;;;;;;;9.20;1.73;;;;;;;11.15;100.00;101394.50;6182597;23;20004;-83
2023/01/01 12:20:30;;;;;;;15.20;1.73;;;;;;;11.12;100.00;101392.34;6183003;23;20009;-86
2023/01/01 12:28:27;;;;;;;17.50;2.50;;;;;;;11.03;100.00;101400.81;6175102;22;20032;-85
2023/01/01 12:31:20;;;;;;;13.97;2.10;;;;;;;10.91;100.00;101389.38;6184659;23;20012;-85
2023/01/01 12:33:58;;;;;;;10.40;2.17;;;;;;;10.83;100.00;101393.28;6154223;23;20249;-86
2023/01/01 12:36:35;;;;;;;13.90;1.92;;;;;;;10.80;100.00;101384.91;6154819;23;20013;-86